CYOD

CFB Cold Lake Airport

Cold Lake, Alberta, Canada
METAR CYOD 181600Z 27010KT 15SM FEW140 M04/M08 A2950 RMK AC2 SLP016
Observed Flight Rules
Dec-18 @ 16:00 UTC (40 minutes ago) Visual Flight Rules
Wind Visibility Clouds
270° at 10 knots 15 miles
  • Few at 14,000' AGL
Temperatures Readings
Current -4°C / 25°F
Dewpoint -8°C / 18°F
Humidity 74%
Altimeter 29.5" Hg
Pressure 1001.6 hPa
Elevation 544
METAR CYOD 181600Z 27010KT 15SM FEW140 M04/M08 A2950 RMK AC2 SLP016
Observed Flight Rules
Dec-18 @ 16:00 UTC
(40 minutes ago)
VFR
Wind Visibility
270° at 10 knots 15 miles
Clouds
  • Few at 14,000' AGL
Temperature Dewpoint
-4°C / 25°F -8°C / 18°F
Humidity Altimeter Pressure
74% 29.5" Hg 1001.6 hPa